Terminal Aerodrome Forecast
Issued by NWS Buffalo, NY

Home | Current Version | Previous Version | Text Only | Print | Product List | Glossary On
Versions: 1 2 3 4 5 6 7 8 9 10 11 12 13 14 15 16 17 18 19 20 21 22 23 24 25
008
FTUS41 KBUF 240540
TAFART
TAF
KART 240540Z 2406/2506 08007KT P6SM VCSH SCT040 OVC060
     FM240800 11008KT 3SM +SHRA VCTS OVC025CB
     FM241600 14010KT P6SM VCSH OVC035
     FM250000 10007KT P6SM VCSH OVC025=

USA.gov is the U.S. government's official web portal to all federal, state and local government web resources and services.